sensor_id;sensor_type;location;lat;lon;timestamp;temperature;humidity
19870;DHT22;10097;50.862;4.696;2022-09-30T00:01:51;7.30;99.90
19870;DHT22;10097;50.862;4.696;2022-09-30T00:04:22;7.30;99.90
19870;DHT22;10097;50.862;4.696;2022-09-30T00:06:53;7.20;99.90
19870;DHT22;10097;50.862;4.696;2022-09-30T00:09:19;7.20;99.90
19870;DHT22;10097;50.862;4.696;2022-09-30T00:11:46;7.10;99.90
19870;DHT22;10097;50.862;4.696;2022-09-30T00:14:17;7.20;99.90
19870;DHT22;10097;50.862;4.696;2022-09-30T00:16:44;7.20;99.90
19870;DHT22;10097;50.862;4.696;2022-09-30T00:19:12;7.20;99.90
19870;DHT22;10097;50.862;4.696;2022-09-30T00:21:38;7.30;99.90
19870;DHT22;10097;50.862;4.696;2022-09-30T00:24:05;7.20;99.90
19870;DHT22;10097;50.862;4.696;2022-09-30T00:26:32;7.20;99.90
19870;DHT22;10097;50.862;4.696;2022-09-30T00:29:09;7.20;99.90
19870;DHT22;10097;50.862;4.696;2022-09-30T00:31:35;7.20;99.90
19870;DHT22;10097;50.862;4.696;2022-09-30T00:34:11;7.20;99.90
19870;DHT22;10097;50.862;4.696;2022-09-30T00:36:45;7.10;99.90
19870;DHT22;10097;50.862;4.696;2022-09-30T00:41:47;7.10;99.90
19870;DHT22;10097;50.862;4.696;2022-09-30T00:44:44;7.10;99.90
19870;DHT22;10097;50.862;4.696;2022-09-30T00:50:21;7.00;99.90
19870;DHT22;10097;50.862;4.696;2022-09-30T00:55:50;7.00;99.90
19870;DHT22;10097;50.862;4.696;2022-09-30T01:01:09;6.90;99.90
19870;DHT22;10097;50.862;4.696;2022-09-30T01:03:42;6.90;99.90
19870;DHT22;10097;50.862;4.696;2022-09-30T01:06:12;6.80;99.90
19870;DHT22;10097;50.862;4.696;2022-09-30T01:08:38;6.80;99.90
19870;DHT22;10097;50.862;4.696;2022-09-30T01:11:07;6.80;99.90
19870;DHT22;10097;50.862;4.696;2022-09-30T01:13:40;6.80;99.90
19870;DHT22;10097;50.862;4.696;2022-09-30T01:21:44;6.70;99.90
19870;DHT22;10097;50.862;4.696;2022-09-30T01:35:41;6.60;99.90
19870;DHT22;10097;50.862;4.696;2022-09-30T01:40:53;6.50;99.90
19870;DHT22;10097;50.862;4.696;2022-09-30T01:46:17;6.50;99.90
19870;DHT22;10097;50.862;4.696;2022-09-30T01:51:43;6.50;99.90
19870;DHT22;10097;50.862;4.696;2022-09-30T01:56:51;6.60;99.90
19870;DHT22;10097;50.862;4.696;2022-09-30T01:59:35;6.60;99.90
19870;DHT22;10097;50.862;4.696;2022-09-30T02:02:08;6.50;99.90
19870;DHT22;10097;50.862;4.696;2022-09-30T02:04:53;6.50;99.90
19870;DHT22;10097;50.862;4.696;2022-09-30T02:07:35;6.50;99.90
19870;DHT22;10097;50.862;4.696;2022-09-30T02:10:14;6.50;99.90
19870;DHT22;10097;50.862;4.696;2022-09-30T02:12:46;6.40;99.90
19870;DHT22;10097;50.862;4.696;2022-09-30T02:15:16;6.40;99.90
19870;DHT22;10097;50.862;4.696;2022-09-30T02:17:49;6.30;99.90
19870;DHT22;10097;50.862;4.696;2022-09-30T02:20:27;6.30;99.90
19870;DHT22;10097;50.862;4.696;2022-09-30T02:23:24;6.30;99.90
19870;DHT22;10097;50.862;4.696;2022-09-30T02:25:58;6.30;99.90
19870;DHT22;10097;50.862;4.696;2022-09-30T02:28:33;6.30;99.90
19870;DHT22;10097;50.862;4.696;2022-09-30T02:31:03;6.30;99.90
19870;DHT22;10097;50.862;4.696;2022-09-30T02:33:34;6.30;99.90
19870;DHT22;10097;50.862;4.696;2022-09-30T02:36:20;6.30;99.90
19870;DHT22;10097;50.862;4.696;2022-09-30T02:39:05;6.30;99.90
19870;DHT22;10097;50.862;4.696;2022-09-30T02:41:59;6.30;99.90
19870;DHT22;10097;50.862;4.696;2022-09-30T02:44:34;6.30;99.90
19870;DHT22;10097;50.862;4.696;2022-09-30T02:50:29;6.20;99.90
19870;DHT22;10097;50.862;4.696;2022-09-30T02:58:20;6.10;99.90
19870;DHT22;10097;50.862;4.696;2022-09-30T03:00:47;6.10;99.90
19870;DHT22;10097;50.862;4.696;2022-09-30T03:03:24;6.10;99.90
19870;DHT22;10097;50.862;4.696;2022-09-30T03:05:51;6.00;99.90
19870;DHT22;10097;50.862;4.696;2022-09-30T03:08:17;6.10;99.90
19870;DHT22;10097;50.862;4.696;2022-09-30T03:10:47;6.10;99.90
19870;DHT22;10097;50.862;4.696;2022-09-30T03:16:01;6.00;99.90
19870;DHT22;10097;50.862;4.696;2022-09-30T03:21:32;6.00;99.90
19870;DHT22;10097;50.862;4.696;2022-09-30T03:30:06;5.90;99.90
19870;DHT22;10097;50.862;4.696;2022-09-30T03:43:19;5.90;99.90
19870;DHT22;10097;50.862;4.696;2022-09-30T03:48:32;5.90;99.90
19870;DHT22;10097;50.862;4.696;2022-09-30T03:51:00;6.00;99.90
19870;DHT22;10097;50.862;4.696;2022-09-30T03:53:26;6.00;99.90
19870;DHT22;10097;50.862;4.696;2022-09-30T03:55:53;5.90;99.90
19870;DHT22;10097;50.862;4.696;2022-09-30T03:58:20;5.90;99.90
19870;DHT22;10097;50.862;4.696;2022-09-30T04:00:52;5.90;99.90
19870;DHT22;10097;50.862;4.696;2022-09-30T04:03:19;5.80;99.90
19870;DHT22;10097;50.862;4.696;2022-09-30T04:05:47;5.90;99.90
19870;DHT22;10097;50.862;4.696;2022-09-30T04:08:16;5.80;99.90
19870;DHT22;10097;50.862;4.696;2022-09-30T04:10:42;5.80;99.90
19870;DHT22;10097;50.862;4.696;2022-09-30T04:13:09;5.90;99.90
19870;DHT22;10097;50.862;4.696;2022-09-30T04:15:35;5.90;99.90
19870;DHT22;10097;50.862;4.696;2022-09-30T04:18:05;5.90;99.90
19870;DHT22;10097;50.862;4.696;2022-09-30T04:20:37;5.90;99.90
19870;DHT22;10097;50.862;4.696;2022-09-30T04:23:06;5.90;99.90
19870;DHT22;10097;50.862;4.696;2022-09-30T04:25:41;5.80;99.90
19870;DHT22;10097;50.862;4.696;2022-09-30T04:28:13;5.80;99.90
19870;DHT22;10097;50.862;4.696;2022-09-30T04:30:43;5.80;99.90
19870;DHT22;10097;50.862;4.696;2022-09-30T04:33:12;5.80;99.90
19870;DHT22;10097;50.862;4.696;2022-09-30T04:35:40;5.70;99.90
19870;DHT22;10097;50.862;4.696;2022-09-30T04:38:09;5.80;99.90
19870;DHT22;10097;50.862;4.696;2022-09-30T04:40:38;5.80;99.90
19870;DHT22;10097;50.862;4.696;2022-09-30T04:43:06;5.80;99.90
19870;DHT22;10097;50.862;4.696;2022-09-30T04:45:52;5.80;99.90
19870;DHT22;10097;50.862;4.696;2022-09-30T04:48:24;5.70;99.90
19870;DHT22;10097;50.862;4.696;2022-09-30T04:50:52;5.70;99.90
19870;DHT22;10097;50.862;4.696;2022-09-30T04:53:21;5.70;99.90
19870;DHT22;10097;50.862;4.696;2022-09-30T04:55:46;5.70;99.90
19870;DHT22;10097;50.862;4.696;2022-09-30T04:58:14;5.70;99.90
19870;DHT22;10097;50.862;4.696;2022-09-30T05:00:41;5.70;99.90
19870;DHT22;10097;50.862;4.696;2022-09-30T05:03:12;5.70;99.90
19870;DHT22;10097;50.862;4.696;2022-09-30T05:05:43;5.60;99.90
19870;DHT22;10097;50.862;4.696;2022-09-30T05:08:22;5.60;99.90
19870;DHT22;10097;50.862;4.696;2022-09-30T05:10:55;5.70;99.90
19870;DHT22;10097;50.862;4.696;2022-09-30T05:13:33;5.70;99.90
19870;DHT22;10097;50.862;4.696;2022-09-30T05:16:01;5.60;99.90
19870;DHT22;10097;50.862;4.696;2022-09-30T05:18:33;5.60;99.90
19870;DHT22;10097;50.862;4.696;2022-09-30T05:21:02;5.60;99.90
19870;DHT22;10097;50.862;4.696;2022-09-30T05:23:30;5.60;99.90
19870;DHT22;10097;50.862;4.696;2022-09-30T05:26:06;5.60;99.90
19870;DHT22;10097;50.862;4.696;2022-09-30T05:28:34;5.70;99.90
19870;DHT22;10097;50.862;4.696;2022-09-30T05:31:03;5.60;99.90
19870;DHT22;10097;50.862;4.696;2022-09-30T05:33:42;5.60;99.90
19870;DHT22;10097;50.862;4.696;2022-09-30T05:36:12;5.70;99.90
19870;DHT22;10097;50.862;4.696;2022-09-30T05:38:41;5.70;99.90
19870;DHT22;10097;50.862;4.696;2022-09-30T05:41:15;5.70;99.90
19870;DHT22;10097;50.862;4.696;2022-09-30T05:43:46;5.70;99.90
19870;DHT22;10097;50.862;4.696;2022-09-30T05:46:15;5.70;99.90
19870;DHT22;10097;50.862;4.696;2022-09-30T05:48:41;5.70;99.90
19870;DHT22;10097;50.862;4.696;2022-09-30T05:51:07;5.70;99.90
19870;DHT22;10097;50.862;4.696;2022-09-30T05:53:40;5.70;99.90
19870;DHT22;10097;50.862;4.696;2022-09-30T05:56:10;5.80;99.90
19870;DHT22;10097;50.862;4.696;2022-09-30T05:58:39;5.90;99.90
19870;DHT22;10097;50.862;4.696;2022-09-30T06:01:16;5.90;99.90
19870;DHT22;10097;50.862;4.696;2022-09-30T06:03:46;5.90;99.90
19870;DHT22;10097;50.862;4.696;2022-09-30T06:06:22;5.90;99.90
19870;DHT22;10097;50.862;4.696;2022-09-30T06:08:50;5.90;99.90
19870;DHT22;10097;50.862;4.696;2022-09-30T06:11:20;6.00;99.90
19870;DHT22;10097;50.862;4.696;2022-09-30T06:13:47;6.10;99.90
19870;DHT22;10097;50.862;4.696;2022-09-30T06:16:17;6.10;99.90
19870;DHT22;10097;50.862;4.696;2022-09-30T06:18:50;6.20;99.90
19870;DHT22;10097;50.862;4.696;2022-09-30T06:21:23;6.30;99.90
19870;DHT22;10097;50.862;4.696;2022-09-30T06:23:52;6.50;99.90
19870;DHT22;10097;50.862;4.696;2022-09-30T06:26:20;6.50;99.90
19870;DHT22;10097;50.862;4.696;2022-09-30T06:28:46;6.60;99.90
19870;DHT22;10097;50.862;4.696;2022-09-30T06:31:21;6.70;99.90
19870;DHT22;10097;50.862;4.696;2022-09-30T06:33:57;6.70;99.90
19870;DHT22;10097;50.862;4.696;2022-09-30T06:36:22;6.80;99.90
19870;DHT22;10097;50.862;4.696;2022-09-30T06:38:58;6.90;99.90
19870;DHT22;10097;50.862;4.696;2022-09-30T06:41:26;7.00;99.90
19870;DHT22;10097;50.862;4.696;2022-09-30T06:43:57;7.10;99.90
19870;DHT22;10097;50.862;4.696;2022-09-30T06:46:24;7.20;99.90
19870;DHT22;10097;50.862;4.696;2022-09-30T06:48:54;7.20;99.90
19870;DHT22;10097;50.862;4.696;2022-09-30T06:51:28;7.30;99.90
19870;DHT22;10097;50.862;4.696;2022-09-30T06:53:58;7.40;99.90
19870;DHT22;10097;50.862;4.696;2022-09-30T06:56:31;7.50;99.90
19870;DHT22;10097;50.862;4.696;2022-09-30T06:59:04;7.50;99.90
19870;DHT22;10097;50.862;4.696;2022-09-30T07:01:40;7.50;99.90
19870;DHT22;10097;50.862;4.696;2022-09-30T07:04:13;7.60;99.90
19870;DHT22;10097;50.862;4.696;2022-09-30T07:06:49;7.70;99.90
19870;DHT22;10097;50.862;4.696;2022-09-30T07:09:27;7.80;99.90
19870;DHT22;10097;50.862;4.696;2022-09-30T07:11:55;7.90;99.90
19870;DHT22;10097;50.862;4.696;2022-09-30T07:14:26;8.00;99.90
19870;DHT22;10097;50.862;4.696;2022-09-30T07:17:01;8.10;99.90
19870;DHT22;10097;50.862;4.696;2022-09-30T07:19:34;8.20;99.90
19870;DHT22;10097;50.862;4.696;2022-09-30T07:22:03;8.30;99.90
19870;DHT22;10097;50.862;4.696;2022-09-30T07:24:50;8.40;99.90
19870;DHT22;10097;50.862;4.696;2022-09-30T07:27:20;8.40;99.90
19870;DHT22;10097;50.862;4.696;2022-09-30T07:29:51;8.60;99.90
19870;DHT22;10097;50.862;4.696;2022-09-30T07:32:29;8.80;99.90
19870;DHT22;10097;50.862;4.696;2022-09-30T07:34:55;9.00;99.90
19870;DHT22;10097;50.862;4.696;2022-09-30T07:37:23;9.10;99.90
19870;DHT22;10097;50.862;4.696;2022-09-30T07:39:52;9.30;99.90
19870;DHT22;10097;50.862;4.696;2022-09-30T07:42:21;9.40;99.90
19870;DHT22;10097;50.862;4.696;2022-09-30T07:44:52;9.60;99.90
19870;DHT22;10097;50.862;4.696;2022-09-30T07:47:18;9.60;99.90
19870;DHT22;10097;50.862;4.696;2022-09-30T07:49:44;9.70;99.90
19870;DHT22;10097;50.862;4.696;2022-09-30T07:52:13;9.80;99.90
19870;DHT22;10097;50.862;4.696;2022-09-30T07:54:41;9.80;99.90
19870;DHT22;10097;50.862;4.696;2022-09-30T07:57:12;9.80;99.90
19870;DHT22;10097;50.862;4.696;2022-09-30T07:59:47;9.90;99.90
19870;DHT22;10097;50.862;4.696;2022-09-30T08:02:25;10.00;99.90
19870;DHT22;10097;50.862;4.696;2022-09-30T08:04:58;10.10;99.90
19870;DHT22;10097;50.862;4.696;2022-09-30T08:07:26;10.10;99.90
19870;DHT22;10097;50.862;4.696;2022-09-30T08:09:52;10.10;99.90
19870;DHT22;10097;50.862;4.696;2022-09-30T08:12:27;10.20;99.90
19870;DHT22;10097;50.862;4.696;2022-09-30T08:14:53;10.30;99.90
19870;DHT22;10097;50.862;4.696;2022-09-30T08:17:24;10.30;99.90
19870;DHT22;10097;50.862;4.696;2022-09-30T08:19:49;10.40;99.90
19870;DHT22;10097;50.862;4.696;2022-09-30T08:22:33;10.60;99.90
19870;DHT22;10097;50.862;4.696;2022-09-30T08:25:19;10.70;99.90
19870;DHT22;10097;50.862;4.696;2022-09-30T08:27:47;10.70;99.90
19870;DHT22;10097;50.862;4.696;2022-09-30T08:30:15;10.80;99.90
19870;DHT22;10097;50.862;4.696;2022-09-30T08:32:46;10.90;99.90
19870;DHT22;10097;50.862;4.696;2022-09-30T08:35:15;11.00;99.90
19870;DHT22;10097;50.862;4.696;2022-09-30T08:37:51;11.10;99.90
19870;DHT22;10097;50.862;4.696;2022-09-30T08:40:50;11.30;99.90
19870;DHT22;10097;50.862;4.696;2022-09-30T08:43:38;11.50;99.90
19870;DHT22;10097;50.862;4.696;2022-09-30T08:46:21;11.60;99.90
19870;DHT22;10097;50.862;4.696;2022-09-30T08:51:37;11.80;99.90
19870;DHT22;10097;50.862;4.696;2022-09-30T08:54:06;11.90;99.90
19870;DHT22;10097;50.862;4.696;2022-09-30T08:56:35;12.00;99.90
19870;DHT22;10097;50.862;4.696;2022-09-30T09:01:46;12.20;99.90
19870;DHT22;10097;50.862;4.696;2022-09-30T09:04:13;12.30;99.90
19870;DHT22;10097;50.862;4.696;2022-09-30T09:07:03;12.30;99.90
19870;DHT22;10097;50.862;4.696;2022-09-30T09:12:20;12.60;99.90
19870;DHT22;10097;50.862;4.696;2022-09-30T09:18:07;12.80;99.90
19870;DHT22;10097;50.862;4.696;2022-09-30T09:20:46;12.90;99.90
19870;DHT22;10097;50.862;4.696;2022-09-30T09:23:21;13.00;99.90
19870;DHT22;10097;50.862;4.696;2022-09-30T09:25:50;13.00;99.90
19870;DHT22;10097;50.862;4.696;2022-09-30T09:28:36;13.20;99.90
19870;DHT22;10097;50.862;4.696;2022-09-30T09:31:12;13.40;99.90
19870;DHT22;10097;50.862;4.696;2022-09-30T09:33:42;13.60;99.90
19870;DHT22;10097;50.862;4.696;2022-09-30T09:47:08;14.00;99.90
19870;DHT22;10097;50.862;4.696;2022-09-30T09:50:03;14.10;99.90
19870;DHT22;10097;50.862;4.696;2022-09-30T09:55:13;14.20;99.90
19870;DHT22;10097;50.862;4.696;2022-09-30T09:57:44;14.20;99.90
19870;DHT22;10097;50.862;4.696;2022-09-30T10:00:30;14.10;99.90
19870;DHT22;10097;50.862;4.696;2022-09-30T10:03:12;14.40;99.90
19870;DHT22;10097;50.862;4.696;2022-09-30T10:05:43;14.50;99.90
19870;DHT22;10097;50.862;4.696;2022-09-30T10:08:14;14.60;99.90
19870;DHT22;10097;50.862;4.696;2022-09-30T10:10:54;14.60;99.90
19870;DHT22;10097;50.862;4.696;2022-09-30T10:13:27;14.70;99.90
19870;DHT22;10097;50.862;4.696;2022-09-30T10:15:58;14.90;99.90
19870;DHT22;10097;50.862;4.696;2022-09-30T10:18:35;15.00;99.90
19870;DHT22;10097;50.862;4.696;2022-09-30T10:21:04;14.90;99.90
19870;DHT22;10097;50.862;4.696;2022-09-30T10:23:40;15.00;99.90
19870;DHT22;10097;50.862;4.696;2022-09-30T10:28:48;15.20;99.90
19870;DHT22;10097;50.862;4.696;2022-09-30T10:31:31;15.30;99.90
19870;DHT22;10097;50.862;4.696;2022-09-30T10:36:45;15.70;99.90
19870;DHT22;10097;50.862;4.696;2022-09-30T10:39:34;15.70;99.90
19870;DHT22;10097;50.862;4.696;2022-09-30T10:42:20;15.80;99.90
19870;DHT22;10097;50.862;4.696;2022-09-30T10:44:53;15.90;99.90
19870;DHT22;10097;50.862;4.696;2022-09-30T10:47:29;16.00;99.90
19870;DHT22;10097;50.862;4.696;2022-09-30T10:50:05;16.20;99.90
19870;DHT22;10097;50.862;4.696;2022-09-30T10:52:40;16.30;99.90
19870;DHT22;10097;50.862;4.696;2022-09-30T10:58:03;16.50;99.90
19870;DHT22;10097;50.862;4.696;2022-09-30T11:00:41;16.60;99.90
19870;DHT22;10097;50.862;4.696;2022-09-30T11:03:16;16.80;99.90
19870;DHT22;10097;50.862;4.696;2022-09-30T11:05:48;17.00;99.90
19870;DHT22;10097;50.862;4.696;2022-09-30T11:08:27;17.10;99.90
19870;DHT22;10097;50.862;4.696;2022-09-30T11:10:59;17.20;99.90
19870;DHT22;10097;50.862;4.696;2022-09-30T11:13:47;17.30;99.90
19870;DHT22;10097;50.862;4.696;2022-09-30T11:16:40;17.40;99.90
19870;DHT22;10097;50.862;4.696;2022-09-30T11:19:25;17.70;99.90
19870;DHT22;10097;50.862;4.696;2022-09-30T11:22:03;17.70;99.90
19870;DHT22;10097;50.862;4.696;2022-09-30T11:24:41;18.00;99.90
19870;DHT22;10097;50.862;4.696;2022-09-30T11:27:24;18.20;99.90
19870;DHT22;10097;50.862;4.696;2022-09-30T11:30:19;18.30;99.90
19870;DHT22;10097;50.862;4.696;2022-09-30T11:35:34;18.20;99.90
19870;DHT22;10097;50.862;4.696;2022-09-30T11:43:53;18.40;99.90
19870;DHT22;10097;50.862;4.696;2022-09-30T11:52:14;19.20;99.90
19870;DHT22;10097;50.862;4.696;2022-09-30T11:54:59;19.60;99.90
19870;DHT22;10097;50.862;4.696;2022-09-30T12:00:13;19.90;99.90
19870;DHT22;10097;50.862;4.696;2022-09-30T12:02:52;19.40;99.90
19870;DHT22;10097;50.862;4.696;2022-09-30T12:05:30;19.20;99.90
19870;DHT22;10097;50.862;4.696;2022-09-30T12:08:23;19.30;99.90
19870;DHT22;10097;50.862;4.696;2022-09-30T12:11:12;19.30;99.90
19870;DHT22;10097;50.862;4.696;2022-09-30T12:13:54;19.30;99.90
19870;DHT22;10097;50.862;4.696;2022-09-30T12:16:28;19.30;99.90
19870;DHT22;10097;50.862;4.696;2022-09-30T12:19:04;19.30;99.90
19870;DHT22;10097;50.862;4.696;2022-09-30T12:21:45;19.50;99.90
19870;DHT22;10097;50.862;4.696;2022-09-30T12:24:40;19.60;99.90
19870;DHT22;10097;50.862;4.696;2022-09-30T12:27:35;19.60;99.90
19870;DHT22;10097;50.862;4.696;2022-09-30T12:30:18;19.60;99.90
19870;DHT22;10097;50.862;4.696;2022-09-30T12:33:03;19.80;99.90
19870;DHT22;10097;50.862;4.696;2022-09-30T12:44:02;20.40;99.90
19870;DHT22;10097;50.862;4.696;2022-09-30T12:46:53;20.40;99.90
19870;DHT22;10097;50.862;4.696;2022-09-30T12:49:26;20.90;99.90
19870;DHT22;10097;50.862;4.696;2022-09-30T12:52:10;21.00;99.90
19870;DHT22;10097;50.862;4.696;2022-09-30T12:54:50;20.80;99.90
19870;DHT22;10097;50.862;4.696;2022-09-30T12:57:27;20.20;99.90
19870;DHT22;10097;50.862;4.696;2022-09-30T13:00:02;20.00;99.90
19870;DHT22;10097;50.862;4.696;2022-09-30T13:03:37;19.90;99.90
19870;DHT22;10097;50.862;4.696;2022-09-30T13:05:51;19.80;99.90
19870;DHT22;10097;50.862;4.696;2022-09-30T13:08:21;19.60;99.90
19870;DHT22;10097;50.862;4.696;2022-09-30T13:11:19;19.50;99.90
19870;DHT22;10097;50.862;4.696;2022-09-30T13:14:18;19.30;99.90
19870;DHT22;10097;50.862;4.696;2022-09-30T13:19:39;20.10;99.90
19870;DHT22;10097;50.862;4.696;2022-09-30T13:28:24;20.30;99.90
19870;DHT22;10097;50.862;4.696;2022-09-30T13:30:46;20.60;99.90
19870;DHT22;10097;50.862;4.696;2022-09-30T13:33:43;21.00;99.90
19870;DHT22;10097;50.862;4.696;2022-09-30T13:36:24;21.50;99.90
19870;DHT22;10097;50.862;4.696;2022-09-30T13:39:22;21.80;99.90
19870;DHT22;10097;50.862;4.696;2022-09-30T13:47:48;22.30;99.90
19870;DHT22;10097;50.862;4.696;2022-09-30T13:50:25;22.40;99.90
19870;DHT22;10097;50.862;4.696;2022-09-30T13:52:57;22.50;99.90
19870;DHT22;10097;50.862;4.696;2022-09-30T13:55:41;22.60;99.90
19870;DHT22;10097;50.862;4.696;2022-09-30T14:00:59;22.60;99.90
19870;DHT22;10097;50.862;4.696;2022-09-30T14:08:45;22.70;99.90
19870;DHT22;10097;50.862;4.696;2022-09-30T14:20:21;22.30;99.90
19870;DHT22;10097;50.862;4.696;2022-09-30T14:22:51;22.20;99.90
19870;DHT22;10097;50.862;4.696;2022-09-30T14:25:19;22.30;99.90
19870;DHT22;10097;50.862;4.696;2022-09-30T14:30:22;22.40;99.90
19870;DHT22;10097;50.862;4.696;2022-09-30T14:35:25;22.90;99.90
19870;DHT22;10097;50.862;4.696;2022-09-30T14:38:02;22.30;99.90
19870;DHT22;10097;50.862;4.696;2022-09-30T14:40:35;22.10;99.90
19870;DHT22;10097;50.862;4.696;2022-09-30T14:43:11;22.10;99.90
19870;DHT22;10097;50.862;4.696;2022-09-30T14:45:40;22.10;99.90
19870;DHT22;10097;50.862;4.696;2022-09-30T14:48:10;22.00;99.90
19870;DHT22;10097;50.862;4.696;2022-09-30T14:51:01;22.00;99.90
19870;DHT22;10097;50.862;4.696;2022-09-30T14:53:31;21.90;99.90
19870;DHT22;10097;50.862;4.696;2022-09-30T14:55:58;21.70;99.90
19870;DHT22;10097;50.862;4.696;2022-09-30T14:58:37;21.50;99.90
19870;DHT22;10097;50.862;4.696;2022-09-30T15:01:14;21.60;99.90
19870;DHT22;10097;50.862;4.696;2022-09-30T15:03:56;21.80;99.90
19870;DHT22;10097;50.862;4.696;2022-09-30T15:06:40;21.90;99.90
19870;DHT22;10097;50.862;4.696;2022-09-30T15:09:28;21.80;99.90
19870;DHT22;10097;50.862;4.696;2022-09-30T15:12:05;21.80;99.90
19870;DHT22;10097;50.862;4.696;2022-09-30T15:14:54;21.80;99.90
19870;DHT22;10097;50.862;4.696;2022-09-30T15:17:26;21.90;99.90
19870;DHT22;10097;50.862;4.696;2022-09-30T15:20:02;21.80;99.90
19870;DHT22;10097;50.862;4.696;2022-09-30T15:22:45;21.30;99.90
19870;DHT22;10097;50.862;4.696;2022-09-30T15:25:21;21.20;99.90
19870;DHT22;10097;50.862;4.696;2022-09-30T15:27:52;21.30;99.90
19870;DHT22;10097;50.862;4.696;2022-09-30T15:32:47;21.20;99.90
19870;DHT22;10097;50.862;4.696;2022-09-30T15:35:17;21.10;99.90
19870;DHT22;10097;50.862;4.696;2022-09-30T15:37:47;21.00;99.90
19870;DHT22;10097;50.862;4.696;2022-09-30T15:40:24;20.60;99.90
19870;DHT22;10097;50.862;4.696;2022-09-30T15:43:10;20.20;99.90
19870;DHT22;10097;50.862;4.696;2022-09-30T15:45:46;19.90;99.90
19870;DHT22;10097;50.862;4.696;2022-09-30T15:50:54;19.20;99.90
19870;DHT22;10097;50.862;4.696;2022-09-30T15:53:25;19.20;99.90
19870;DHT22;10097;50.862;4.696;2022-09-30T15:55:55;19.10;99.90
19870;DHT22;10097;50.862;4.696;2022-09-30T15:58:41;18.90;99.90
19870;DHT22;10097;50.862;4.696;2022-09-30T16:07:07;18.70;99.90
19870;DHT22;10097;50.862;4.696;2022-09-30T16:09:40;18.40;99.90
19870;DHT22;10097;50.862;4.696;2022-09-30T16:14:59;18.10;99.90
19870;DHT22;10097;50.862;4.696;2022-09-30T16:17:37;18.00;99.90
19870;DHT22;10097;50.862;4.696;2022-09-30T16:25:23;17.60;99.90
19870;DHT22;10097;50.862;4.696;2022-09-30T16:28:14;17.50;99.90
19870;DHT22;10097;50.862;4.696;2022-09-30T16:30:45;17.40;99.90
19870;DHT22;10097;50.862;4.696;2022-09-30T16:33:15;17.20;99.90
19870;DHT22;10097;50.862;4.696;2022-09-30T16:35:49;17.10;99.90
19870;DHT22;10097;50.862;4.696;2022-09-30T16:38:17;17.00;99.90
19870;DHT22;10097;50.862;4.696;2022-09-30T16:40:44;17.10;99.90
19870;DHT22;10097;50.862;4.696;2022-09-30T16:43:22;16.90;99.90
19870;DHT22;10097;50.862;4.696;2022-09-30T16:45:51;16.80;99.90
19870;DHT22;10097;50.862;4.696;2022-09-30T16:48:18;16.70;99.90
19870;DHT22;10097;50.862;4.696;2022-09-30T16:50:56;16.50;99.90
19870;DHT22;10097;50.862;4.696;2022-09-30T16:53:25;16.30;99.90
19870;DHT22;10097;50.862;4.696;2022-09-30T16:55:59;16.20;99.90
19870;DHT22;10097;50.862;4.696;2022-09-30T16:58:27;16.20;99.90
19870;DHT22;10097;50.862;4.696;2022-09-30T17:00:55;16.10;99.90
19870;DHT22;10097;50.862;4.696;2022-09-30T17:03:27;16.10;99.90
19870;DHT22;10097;50.862;4.696;2022-09-30T17:05:55;16.10;99.90
19870;DHT22;10097;50.862;4.696;2022-09-30T17:08:24;16.00;99.90
19870;DHT22;10097;50.862;4.696;2022-09-30T17:10:59;15.90;99.90
19870;DHT22;10097;50.862;4.696;2022-09-30T17:13:25;15.90;99.90
19870;DHT22;10097;50.862;4.696;2022-09-30T17:15:57;15.80;99.90
19870;DHT22;10097;50.862;4.696;2022-09-30T17:18:26;15.80;99.90
19870;DHT22;10097;50.862;4.696;2022-09-30T17:20:57;15.60;99.90
19870;DHT22;10097;50.862;4.696;2022-09-30T17:23:32;15.50;99.90
19870;DHT22;10097;50.862;4.696;2022-09-30T17:26:23;15.50;99.90
19870;DHT22;10097;50.862;4.696;2022-09-30T17:28:49;15.40;99.90
19870;DHT22;10097;50.862;4.696;2022-09-30T17:31:42;15.30;99.90
19870;DHT22;10097;50.862;4.696;2022-09-30T17:34:17;15.20;99.90
19870;DHT22;10097;50.862;4.696;2022-09-30T17:36:56;15.20;99.90
19870;DHT22;10097;50.862;4.696;2022-09-30T17:39:29;15.10;99.90
19870;DHT22;10097;50.862;4.696;2022-09-30T17:42:04;14.90;99.90
19870;DHT22;10097;50.862;4.696;2022-09-30T17:44:58;14.90;99.90
19870;DHT22;10097;50.862;4.696;2022-09-30T17:47:48;14.80;99.90
19870;DHT22;10097;50.862;4.696;2022-09-30T17:50:14;14.70;99.90
19870;DHT22;10097;50.862;4.696;2022-09-30T17:52:42;14.60;99.90
19870;DHT22;10097;50.862;4.696;2022-09-30T17:55:08;14.50;99.90
19870;DHT22;10097;50.862;4.696;2022-09-30T17:57:36;14.50;99.90
19870;DHT22;10097;50.862;4.696;2022-09-30T18:00:15;14.50;99.90
19870;DHT22;10097;50.862;4.696;2022-09-30T18:02:49;14.40;99.90
19870;DHT22;10097;50.862;4.696;2022-09-30T18:05:15;14.40;99.90
19870;DHT22;10097;50.862;4.696;2022-09-30T18:07:48;14.30;99.90
19870;DHT22;10097;50.862;4.696;2022-09-30T18:10:17;14.30;99.90
19870;DHT22;10097;50.862;4.696;2022-09-30T18:12:42;14.20;99.90
19870;DHT22;10097;50.862;4.696;2022-09-30T18:15:28;14.30;99.90
19870;DHT22;10097;50.862;4.696;2022-09-30T18:17:57;14.20;99.90
19870;DHT22;10097;50.862;4.696;2022-09-30T18:20:25;14.20;99.90
19870;DHT22;10097;50.862;4.696;2022-09-30T18:22:54;14.20;99.90
19870;DHT22;10097;50.862;4.696;2022-09-30T18:25:21;14.10;99.90
19870;DHT22;10097;50.862;4.696;2022-09-30T18:27:52;14.20;99.90
19870;DHT22;10097;50.862;4.696;2022-09-30T18:30:27;14.10;99.90
19870;DHT22;10097;50.862;4.696;2022-09-30T18:32:53;14.20;99.90
19870;DHT22;10097;50.862;4.696;2022-09-30T18:35:24;14.10;99.90
19870;DHT22;10097;50.862;4.696;2022-09-30T18:37:57;14.10;99.90
19870;DHT22;10097;50.862;4.696;2022-09-30T18:40:27;14.20;99.90
19870;DHT22;10097;50.862;4.696;2022-09-30T18:42:55;14.20;99.90
19870;DHT22;10097;50.862;4.696;2022-09-30T18:45:53;14.30;99.90
19870;DHT22;10097;50.862;4.696;2022-09-30T18:48:25;14.20;99.90
19870;DHT22;10097;50.862;4.696;2022-09-30T18:51:00;14.30;99.90
19870;DHT22;10097;50.862;4.696;2022-09-30T18:53:30;14.20;99.90
19870;DHT22;10097;50.862;4.696;2022-09-30T18:56:02;14.30;99.90
19870;DHT22;10097;50.862;4.696;2022-09-30T18:58:31;14.30;99.90
19870;DHT22;10097;50.862;4.696;2022-09-30T19:01:01;14.30;99.90
19870;DHT22;10097;50.862;4.696;2022-09-30T19:03:32;14.30;99.90
19870;DHT22;10097;50.862;4.696;2022-09-30T19:06:06;14.40;99.90
19870;DHT22;10097;50.862;4.696;2022-09-30T19:08:34;14.30;99.90
19870;DHT22;10097;50.862;4.696;2022-09-30T19:11:05;14.30;99.90
19870;DHT22;10097;50.862;4.696;2022-09-30T19:13:41;14.30;99.90
19870;DHT22;10097;50.862;4.696;2022-09-30T19:16:16;14.30;99.90
19870;DHT22;10097;50.862;4.696;2022-09-30T19:18:44;14.30;99.90
19870;DHT22;10097;50.862;4.696;2022-09-30T19:21:20;14.20;99.90
19870;DHT22;10097;50.862;4.696;2022-09-30T19:23:50;14.40;99.90
19870;DHT22;10097;50.862;4.696;2022-09-30T19:26:24;14.40;99.90
19870;DHT22;10097;50.862;4.696;2022-09-30T19:28:56;14.40;99.90